Time;durP1;ratioP1;P1;durP2;ratioP2;P2;SDS_P1;SDS_P2;PMS_P1;PMS_P2;Temp;Humidity;BMP_temperature;BMP_pressure;BME280_temperature;BME280_humidity;BME280_pressure;Samples;Min_cycle;Max_cycle;Signal;HPM_P1;HPM_P2
2021/01/25 00:00:09;;;;;;;28.70;25.60;;;4.20;99.90;;;;;;5057432;28;20188;-78
2021/01/25 00:02:35;;;;;;;27.97;24.93;;;4.10;99.90;;;;;;5092473;28;20624;-78
2021/01/25 00:05:00;;;;;;;28.53;25.63;;;3.80;99.90;;;;;;5077401;28;20214;-78
2021/01/25 00:07:26;;;;;;;30.23;27.13;;;3.80;99.90;;;;;;5076175;28;20182;-78
2021/01/25 00:09:51;;;;;;;29.20;26.13;;;3.70;99.90;;;;;;5075007;28;20672;-78
2021/01/25 00:12:17;;;;;;;28.37;25.47;;;3.50;99.90;;;;;;5074975;28;20211;-78
2021/01/25 00:14:43;;;;;;;29.10;26.03;;;3.50;99.90;;;;;;5075095;28;20213;-78
2021/01/25 00:17:08;;;;;;;27.80;24.97;;;3.60;99.90;;;;;;5088995;28;20176;-78
2021/01/25 00:19:34;;;;;;;27.93;25.23;;;3.50;99.90;;;;;;5095374;28;20229;-79
2021/01/25 00:21:59;;;;;;;27.80;25.07;;;3.60;99.90;;;;;;5091749;28;20188;-78
2021/01/25 00:24:25;;;;;;;29.23;26.33;;;3.70;99.90;;;;;;5077014;28;20207;-78
2021/01/25 00:26:51;;;;;;;31.43;26.40;;;3.70;99.90;;;;;;5093883;28;20179;-78
2021/01/25 00:29:16;;;;;;;27.80;25.00;;;3.60;99.90;;;;;;5084308;28;20240;-78
2021/01/25 00:31:42;;;;;;;29.10;26.20;;;3.50;99.90;;;;;;5073585;28;20625;-78
2021/01/25 00:34:07;;;;;;;29.00;25.90;;;3.50;99.90;;;;;;5074822;28;20178;-78
2021/01/25 00:36:33;;;;;;;25.70;23.00;;;3.70;99.90;;;;;;5074964;28;20190;-78
2021/01/25 00:38:59;;;;;;;24.97;22.57;;;3.60;99.90;;;;;;5087903;28;20200;-78
2021/01/25 00:41:24;;;;;;;24.10;21.80;;;3.60;99.90;;;;;;5073339;28;20185;-78
2021/01/25 00:43:50;;;;;;;24.33;21.93;;;3.60;99.90;;;;;;5073428;28;20261;-77
2021/01/25 00:46:15;;;;;;;22.00;19.80;;;3.50;99.90;;;;;;5073371;28;20225;-78
2021/01/25 00:48:41;;;;;;;22.20;19.80;;;3.40;99.90;;;;;;5074498;28;20178;-78
2021/01/25 00:51:07;;;;;;;19.60;17.70;;;3.50;99.90;;;;;;5073083;28;20178;-78
2021/01/25 00:53:32;;;;;;;19.57;16.80;;;3.50;99.90;;;;;;5074826;28;20570;-78
2021/01/25 00:55:58;;;;;;;19.03;17.23;;;3.40;99.90;;;;;;5039852;28;20187;-78
2021/01/25 00:58:23;;;;;;;19.20;17.40;;;3.40;99.90;;;;;;5073879;28;20187;-78
2021/01/25 01:00:49;;;;;;;18.53;16.73;;;3.50;99.90;;;;;;5073046;28;20523;-78
2021/01/25 01:03:15;;;;;;;18.43;16.53;;;3.60;99.90;;;;;;5074473;28;20166;-78
2021/01/25 01:05:40;;;;;;;18.27;16.57;;;3.70;99.90;;;;;;5073735;28;20326;-78
2021/01/25 01:08:06;;;;;;;20.17;18.07;;;3.70;99.90;;;;;;5072801;28;20245;-78
2021/01/25 01:10:31;;;;;;;18.83;16.93;;;3.80;99.90;;;;;;5074018;28;20177;-79
2021/01/25 01:12:57;;;;;;;18.53;16.00;;;3.70;99.90;;;;;;5072887;28;20187;-78
2021/01/25 01:15:23;;;;;;;17.27;15.63;;;3.60;99.90;;;;;;5090472;28;20176;-79
2021/01/25 01:17:48;;;;;;;18.57;16.80;;;3.60;99.90;;;;;;5094252;28;20571;-78
2021/01/25 01:20:14;;;;;;;18.90;16.93;;;3.80;99.90;;;;;;5092680;28;20181;-78
2021/01/25 01:22:40;;;;;;;17.97;16.13;;;3.70;99.90;;;;;;5089292;28;20185;-78
2021/01/25 01:25:07;;;;;;;19.63;17.77;;;3.90;99.90;;;;;;5092639;28;20638;-79
2021/01/25 01:27:33;;;;;;;18.57;16.60;;;4.10;99.90;;;;;;5093524;28;20638;-79
2021/01/25 01:29:58;;;;;;;18.33;16.53;;;4.10;99.90;;;;;;5090417;28;20202;-78
2021/01/25 01:32:24;;;;;;;19.37;17.20;;;4.10;99.90;;;;;;5075611;28;20178;-79
2021/01/25 01:34:50;;;;;;;18.77;16.97;;;4.20;99.90;;;;;;5079088;28;20180;-78
2021/01/25 01:37:15;;;;;;;19.27;17.47;;;4.30;99.90;;;;;;5093048;28;20534;-79
2021/01/25 01:39:41;;;;;;;19.90;17.90;;;4.40;99.90;;;;;;5093543;28;20184;-78
2021/01/25 01:42:13;;;;;;;19.57;17.10;;;4.30;99.90;;;;;;5078099;28;20188;-78
2021/01/25 01:44:39;;;;;;;19.57;17.57;;;4.40;99.90;;;;;;5079993;28;20227;-78
2021/01/25 01:47:04;;;;;;;19.27;17.43;;;4.30;99.90;;;;;;5072260;28;20233;-79
2021/01/25 01:49:30;;;;;;;19.53;17.50;;;4.40;99.90;;;;;;5073385;28;20253;-78
2021/01/25 01:51:56;;;;;;;19.73;17.73;;;4.10;99.90;;;;;;5082465;28;20582;-79
2021/01/25 01:54:21;;;;;;;20.13;18.27;;;4.10;99.90;;;;;;5092007;28;20175;-79
2021/01/25 01:56:47;;;;;;;19.73;17.87;;;4.10;99.90;;;;;;5088166;28;20172;-79
2021/01/25 01:59:13;;;;;;;19.73;17.83;;;4.20;99.90;;;;;;5079528;28;20549;-79
2021/01/25 02:01:38;;;;;;;20.80;18.73;;;4.10;99.90;;;;;;5075469;28;20174;-78
2021/01/25 02:04:04;;;;;;;20.17;18.33;;;4.20;99.90;;;;;;5075238;28;20284;-79
2021/01/25 02:06:32;;;;;;;19.93;17.87;;;4.30;99.90;;;;;;5072817;28;20192;-79
2021/01/25 02:09:01;;;;;;;21.23;18.53;;;4.30;99.90;;;;;;5089711;28;20178;-79
2021/01/25 02:11:29;;;;;;;21.40;19.23;;;4.40;99.90;;;;;;5077304;28;20179;-78
2021/01/25 02:13:55;;;;;;;20.93;18.93;;;4.40;99.90;;;;;;5072011;28;20178;-78
2021/01/25 02:16:21;;;;;;;21.30;19.20;;;4.60;99.90;;;;;;5081526;28;20306;-78
2021/01/25 02:18:47;;;;;;;20.30;18.30;;;4.60;99.90;;;;;;5085815;28;20173;-78
2021/01/25 02:21:15;;;;;;;21.03;18.83;;;4.60;99.90;;;;;;5084011;28;20194;-79
2021/01/25 02:24:14;;;;;;;20.70;18.63;;;4.60;99.90;;;;;;5070610;28;20609;-78
2021/01/25 02:27:04;;;;;;;22.07;19.63;;;4.50;99.90;;;;;;5086515;28;20181;-79
2021/01/25 02:29:30;;;;;;;20.93;18.83;;;4.50;99.90;;;;;;5083293;28;20200;-78
2021/01/25 02:31:56;;;;;;;20.60;18.63;;;4.50;99.90;;;;;;5078771;28;20228;-79
2021/01/25 02:34:24;;;;;;;20.10;18.20;;;4.40;99.90;;;;;;5072964;28;20181;-79
2021/01/25 02:36:51;;;;;;;20.47;18.27;;;4.40;99.90;;;;;;5072982;28;20276;-78
2021/01/25 02:39:17;;;;;;;20.13;18.10;;;4.40;99.90;;;;;;5078871;28;20646;-79
2021/01/25 02:41:43;;;;;;;20.37;18.37;;;4.40;99.90;;;;;;5071653;28;20633;-78
2021/01/25 02:44:10;;;;;;;20.90;18.73;;;4.40;99.90;;;;;;5071938;28;20209;-79
2021/01/25 02:46:36;;;;;;;20.23;18.23;;;4.30;99.90;;;;;;5071729;28;20177;-79
2021/01/25 02:49:03;;;;;;;22.23;19.97;;;4.30;99.90;;;;;;5078914;28;20272;-78
2021/01/25 02:51:28;;;;;;;21.97;19.77;;;4.30;99.90;;;;;;5089951;28;20181;-79
2021/01/25 02:53:54;;;;;;;20.47;18.47;;;4.40;99.90;;;;;;5093048;28;20176;-79
2021/01/25 02:56:21;;;;;;;21.87;19.70;;;4.50;99.90;;;;;;5091718;28;20192;-79
2021/01/25 02:58:47;;;;;;;23.73;20.90;;;4.60;99.90;;;;;;5092016;28;20269;-78
2021/01/25 03:01:13;;;;;;;23.30;21.00;;;4.60;99.90;;;;;;5080709;28;20188;-79
2021/01/25 03:03:41;;;;;;;22.03;19.73;;;4.60;99.90;;;;;;5091970;28;20185;-79
2021/01/25 03:06:07;;;;;;;21.90;19.63;;;4.50;99.90;;;;;;5080483;28;20238;-79
2021/01/25 03:08:33;;;;;;;22.57;20.30;;;4.40;99.90;;;;;;5071456;28;20300;-79
2021/01/25 03:10:59;;;;;;;22.90;20.70;;;4.40;99.90;;;;;;5088453;28;20207;-79
2021/01/25 03:13:26;;;;;;;22.53;20.27;;;4.50;99.90;;;;;;5087071;28;20264;-79
2021/01/25 03:15:57;;;;;;;22.33;20.13;;;4.50;99.90;;;;;;5087241;28;20705;-79
2021/01/25 03:18:23;;;;;;;22.50;20.40;;;4.30;99.90;;;;;;5072689;28;20198;-79
2021/01/25 03:20:50;;;;;;;23.57;21.27;;;4.40;99.90;;;;;;5084889;28;20180;-79
2021/01/25 03:23:17;;;;;;;22.13;20.03;;;4.40;99.90;;;;;;5095177;28;20181;-79
2021/01/25 03:25:43;;;;;;;19.97;18.17;;;4.40;99.90;;;;;;5096293;28;20192;-79
2021/01/25 03:28:10;;;;;;;21.80;19.80;;;4.40;99.90;;;;;;5089091;28;20597;-78
2021/01/25 03:30:36;;;;;;;21.53;19.43;;;4.40;99.90;;;;;;5075923;28;20213;-79
2021/01/25 03:33:02;;;;;;;20.37;18.47;;;4.30;99.90;;;;;;5086999;28;20175;-79
2021/01/25 03:35:28;;;;;;;21.70;19.53;;;4.20;99.90;;;;;;5088883;28;20181;-79
2021/01/25 03:37:54;;;;;;;21.67;19.47;;;4.00;99.90;;;;;;5077896;28;20258;-79
2021/01/25 03:40:19;;;;;;;21.60;19.40;;;3.80;99.90;;;;;;5096004;28;20181;-78
2021/01/25 03:42:45;;;;;;;22.23;19.87;;;4.00;99.90;;;;;;5095994;28;20197;-79
2021/01/25 03:45:11;;;;;;;22.37;19.97;;;4.30;99.90;;;;;;5095929;28;20677;-79
2021/01/25 03:47:36;;;;;;;21.97;19.77;;;4.30;99.90;;;;;;5074670;28;20172;-79
2021/01/25 03:50:03;;;;;;;22.87;20.67;;;4.40;99.90;;;;;;5075283;28;20278;-78
2021/01/25 03:52:28;;;;;;;23.10;21.00;;;4.50;99.90;;;;;;5074605;28;20548;-79
2021/01/25 03:54:54;;;;;;;22.53;20.23;;;4.50;99.90;;;;;;5075471;28;20181;-79
2021/01/25 03:57:19;;;;;;;22.87;20.73;;;4.50;99.90;;;;;;5090471;28;20185;-79
2021/01/25 03:59:45;;;;;;;24.93;22.33;;;4.10;99.90;;;;;;5094018;28;20556;-78
2021/01/25 04:02:13;;;;;;;24.30;21.77;;;4.00;99.90;;;;;;5095650;28;20267;-79
2021/01/25 04:04:40;;;;;;;23.30;21.00;;;4.20;99.90;;;;;;5095479;28;20204;-78
2021/01/25 04:07:06;;;;;;;24.37;21.87;;;4.30;99.90;;;;;;5081006;28;20557;-78
2021/01/25 04:09:32;;;;;;;23.13;21.00;;;4.30;99.90;;;;;;5088616;28;20180;-79
2021/01/25 04:11:58;;;;;;;22.63;20.43;;;4.20;99.90;;;;;;5095592;28;20180;-78
2021/01/25 04:14:23;;;;;;;23.43;21.10;;;4.10;99.90;;;;;;5093802;28;20177;-78
2021/01/25 04:16:49;;;;;;;21.90;19.80;;;4.20;99.90;;;;;;5095351;28;20594;-79
2021/01/25 04:19:14;;;;;;;22.63;20.33;;;4.20;99.90;;;;;;5094214;28;20682;-78
2021/01/25 04:21:40;;;;;;;24.47;21.77;;;4.30;99.90;;;;;;5089021;28;20178;-79
2021/01/25 04:24:06;;;;;;;22.23;20.03;;;4.30;99.90;;;;;;5074823;28;20176;-79
2021/01/25 04:26:32;;;;;;;23.80;21.27;;;4.30;99.90;;;;;;5074883;28;20176;-79
2021/01/25 04:28:58;;;;;;;23.60;21.33;;;4.30;99.90;;;;;;5074318;28;20292;-78
2021/01/25 04:31:23;;;;;;;24.40;22.10;;;4.30;99.90;;;;;;5073401;28;20167;-78
2021/01/25 04:33:49;;;;;;;25.50;22.83;;;4.30;99.90;;;;;;5084688;28;20234;-79
2021/01/25 04:36:14;;;;;;;26.47;23.57;;;4.40;99.90;;;;;;5081798;28;20734;-79
2021/01/25 04:38:40;;;;;;;26.93;24.17;;;4.50;99.90;;;;;;5089981;28;20181;-79
2021/01/25 04:41:07;;;;;;;24.57;22.17;;;4.30;99.90;;;;;;5073323;28;20185;-78
2021/01/25 04:43:32;;;;;;;26.47;23.70;;;3.90;99.90;;;;;;5074720;28;20224;-78
2021/01/25 04:45:59;;;;;;;25.87;23.13;;;3.90;99.90;;;;;;5106166;28;20636;-78
2021/01/25 04:48:31;;;;;;;26.53;23.90;;;4.10;99.90;;;;;;5073493;28;20197;-78
2021/01/25 04:50:59;;;;;;;27.10;23.30;;;4.20;99.90;;;;;;5074749;28;20216;-78
2021/01/25 04:53:25;;;;;;;27.60;24.53;;;4.30;99.90;;;;;;5073306;28;20190;-78
2021/01/25 04:55:51;;;;;;;26.80;24.20;;;4.30;99.90;;;;;;5077768;28;20180;-78
2021/01/25 04:58:18;;;;;;;28.40;25.47;;;4.30;99.90;;;;;;5093871;28;20188;-78
2021/01/25 05:00:44;;;;;;;26.83;24.13;;;4.00;99.90;;;;;;5089561;28;20235;-78
2021/01/25 05:03:09;;;;;;;26.03;23.33;;;3.90;99.90;;;;;;5087075;28;20189;-78
2021/01/25 05:05:35;;;;;;;27.00;24.20;;;3.90;99.90;;;;;;5087064;28;20210;-78
2021/01/25 05:08:01;;;;;;;25.90;23.43;;;3.90;99.90;;;;;;5056569;28;20184;-78
2021/01/25 05:10:28;;;;;;;28.63;25.47;;;3.90;99.90;;;;;;5074130;28;20187;-79
2021/01/25 05:12:53;;;;;;;27.57;24.70;;;3.90;99.90;;;;;;5085943;28;20266;-78
2021/01/25 05:15:28;;;;;;;27.17;24.47;;;3.90;99.90;;;;;;5093432;28;20322;-78
2021/01/25 05:17:55;;;;;;;30.07;26.57;;;4.00;99.90;;;;;;5093960;28;20181;-78
2021/01/25 05:20:28;;;;;;;27.27;24.60;;;3.90;99.90;;;;;;5076828;28;20189;-78
2021/01/25 05:22:59;;;;;;;27.50;24.80;;;3.60;99.90;;;;;;5085211;28;20197;-78
2021/01/25 05:25:27;;;;;;;26.67;24.00;;;3.40;99.90;;;;;;5090310;28;20552;-78
2021/01/25 05:27:53;;;;;;;28.53;25.50;;;3.60;99.90;;;;;;5092760;28;20564;-79
2021/01/25 05:30:19;;;;;;;28.43;25.53;;;3.70;99.90;;;;;;5089748;28;20180;-78
2021/01/25 05:32:53;;;;;;;28.37;25.47;;;3.80;99.90;;;;;;5073547;28;20724;-79
2021/01/25 05:35:23;;;;;;;26.60;23.90;;;3.80;99.90;;;;;;5073820;28;20530;-78
2021/01/25 05:37:58;;;;;;;26.80;23.97;;;3.90;99.90;;;;;;5081210;28;20212;-78
2021/01/25 05:40:25;;;;;;;27.23;24.07;;;3.90;99.90;;;;;;5092400;28;20208;-78
2021/01/25 05:42:52;;;;;;;31.53;27.07;;;4.00;99.90;;;;;;5093780;28;20692;-79
2021/01/25 05:45:18;;;;;;;29.53;26.50;;;4.00;99.90;;;;;;5086930;28;20668;-77
2021/01/25 05:47:46;;;;;;;30.13;27.03;;;4.10;99.90;;;;;;5093530;28;20648;-78
2021/01/25 05:50:34;;;;;;;34.53;31.00;;;4.20;99.90;;;;;;5091492;28;20211;-78
2021/01/25 05:53:11;;;;;;;33.53;30.03;;;4.30;99.90;;;;;;5071886;28;20170;-78
2021/01/25 05:55:37;;;;;;;32.57;29.43;;;4.20;99.90;;;;;;5093666;28;20212;-78
2021/01/25 05:58:04;;;;;;;35.47;29.97;;;4.10;99.90;;;;;;5073496;28;20676;-78
2021/01/25 06:00:30;;;;;;;32.33;28.93;;;3.90;99.90;;;;;;5072160;28;20203;-78
2021/01/25 06:02:56;;;;;;;33.60;30.17;;;3.80;99.90;;;;;;5093855;28;20177;-78
2021/01/25 06:05:31;;;;;;;30.37;27.27;;;3.70;99.90;;;;;;5091295;28;20212;-78
2021/01/25 06:08:20;;;;;;;33.03;29.73;;;3.70;99.90;;;;;;5081248;28;20184;-78
2021/01/25 06:11:11;;;;;;;34.93;31.43;;;3.90;99.90;;;;;;5093300;28;20176;-78
2021/01/25 06:13:58;;;;;;;36.00;32.13;;;4.00;99.90;;;;;;5074490;28;20260;-78
2021/01/25 06:16:26;;;;;;;35.33;31.67;;;4.10;99.90;;;;;;5087450;28;20212;-78
2021/01/25 06:19:05;;;;;;;34.67;31.10;;;4.10;99.90;;;;;;5092470;28;20697;-78
2021/01/25 06:21:33;;;;;;;38.23;32.07;;;4.00;99.90;;;;;;5090649;28;20225;-78
2021/01/25 06:24:02;;;;;;;33.57;30.17;;;4.20;99.90;;;;;;5071836;28;20189;-78
2021/01/25 06:26:32;;;;;;;34.53;31.13;;;4.20;99.90;;;;;;5071856;28;20584;-78
2021/01/25 06:29:08;;;;;;;37.23;32.57;;;4.00;99.90;;;;;;5078877;28;20189;-78
2021/01/25 06:31:35;;;;;;;38.10;34.13;;;3.90;99.90;;;;;;5073488;28;20210;-78
2021/01/25 06:34:10;;;;;;;36.10;32.03;;;4.00;99.90;;;;;;5076725;28;20235;-77
2021/01/25 06:36:37;;;;;;;33.67;30.07;;;3.80;99.90;;;;;;5083809;28;20541;-77
2021/01/25 06:39:04;;;;;;;35.10;31.40;;;3.70;99.90;;;;;;5088778;28;20191;-77
2021/01/25 06:41:40;;;;;;;34.57;30.87;;;3.50;99.90;;;;;;5093189;28;20224;-78
2021/01/25 06:44:08;;;;;;;33.73;30.33;;;3.30;99.90;;;;;;5073012;28;20661;-77
2021/01/25 06:46:39;;;;;;;36.70;32.73;;;3.10;99.90;;;;;;5077070;28;20637;-77
2021/01/25 06:49:07;;;;;;;36.67;32.87;;;3.00;99.90;;;;;;5091662;28;20180;-77
2021/01/25 06:51:38;;;;;;;40.23;34.77;;;2.80;99.90;;;;;;5091945;28;20181;-77
2021/01/25 06:54:04;;;;;;;37.97;34.13;;;2.90;99.90;;;;;;5090023;28;20200;-77
2021/01/25 06:56:50;;;;;;;41.67;37.03;;;3.00;99.90;;;;;;5094670;28;20300;-77
2021/01/25 06:59:19;;;;;;;42.20;37.77;;;3.00;99.90;;;;;;5095415;28;20679;-77
2021/01/25 07:01:52;;;;;;;43.03;36.40;;;2.80;99.90;;;;;;5096887;28;20176;-77
2021/01/25 07:04:21;;;;;;;41.97;37.47;;;2.70;99.90;;;;;;5090408;28;20265;-76
2021/01/25 07:06:54;;;;;;;42.67;38.03;;;2.50;99.90;;;;;;5092587;28;20185;-77
2021/01/25 07:09:25;;;;;;;50.40;39.73;;;2.40;99.90;;;;;;5075225;28;20232;-78
2021/01/25 07:11:52;;;;;;;57.77;43.07;;;2.10;99.90;;;;;;5076359;28;20543;-78
2021/01/25 07:14:22;;;;;;;58.20;44.13;;;1.90;99.90;;;;;;5075313;28;20175;-77
2021/01/25 07:16:49;;;;;;;67.13;49.73;;;1.90;99.90;;;;;;5074946;28;20229;-78
2021/01/25 07:19:16;;;;;;;81.87;53.80;;;1.90;99.90;;;;;;5083214;28;20224;-79
2021/01/25 07:21:41;;;;;;;85.57;57.13;;;1.90;99.90;;;;;;5096455;28;20283;-78
2021/01/25 07:24:08;;;;;;;97.77;57.43;;;1.90;99.90;;;;;;5095763;28;20307;-78
2021/01/25 07:26:37;;;;;;;84.27;55.13;;;1.90;99.90;;;;;;5093824;28;20660;-78
2021/01/25 07:29:09;;;;;;;82.30;53.03;;;1.90;99.90;;;;;;5090915;28;20709;-78
2021/01/25 07:31:35;;;;;;;83.67;55.57;;;1.80;99.90;;;;;;5088554;28;20166;-78
2021/01/25 07:34:01;;;;;;;95.33;55.93;;;1.90;99.90;;;;;;5085752;28;20631;-78
2021/01/25 07:36:26;;;;;;;92.33;58.03;;;1.80;99.90;;;;;;5092941;28;20190;-78
2021/01/25 07:38:52;;;;;;;81.67;55.30;;;1.80;99.90;;;;;;5091226;28;20185;-78
2021/01/25 07:41:18;;;;;;;84.40;55.53;;;1.80;99.90;;;;;;5086952;28;20210;-78
2021/01/25 07:43:44;;;;;;;93.10;59.13;;;1.90;99.90;;;;;;5073089;28;20271;-79
2021/01/25 07:46:10;;;;;;;107.63;59.03;;;1.80;99.90;;;;;;5075401;28;20664;-78
2021/01/25 07:48:49;;;;;;;93.70;59.30;;;1.80;99.90;;;;;;5084181;28;20183;-79
2021/01/25 07:51:22;;;;;;;99.77;58.87;;;1.80;99.90;;;;;;5075575;28;20611;-79
2021/01/25 07:53:48;;;;;;;101.60;60.27;;;1.70;99.90;;;;;;5075486;28;20155;-78
2021/01/25 07:56:16;;;;;;;95.30;59.53;;;1.80;99.90;;;;;;5079189;28;20261;-78
2021/01/25 07:58:42;;;;;;;95.80;61.10;;;1.70;99.90;;;;;;5093690;28;20170;-79
2021/01/25 08:01:12;;;;;;;105.33;63.13;;;1.80;99.90;;;;;;5094781;28;20182;-79
2021/01/25 08:03:42;;;;;;;99.97;60.73;;;1.90;99.90;;;;;;5093773;28;20501;-79
2021/01/25 08:06:09;;;;;;;93.20;60.63;;;1.80;99.90;;;;;;5094550;28;20210;-78
2021/01/25 08:08:36;;;;;;;94.20;59.83;;;1.90;99.90;;;;;;5092936;28;20170;-78
2021/01/25 08:11:06;;;;;;;89.87;59.93;;;1.80;99.90;;;;;;5094702;28;20166;-78
2021/01/25 08:13:40;;;;;;;93.97;58.60;;;1.80;99.90;;;;;;5093862;28;20547;-79
2021/01/25 08:16:17;;;;;;;91.80;60.83;;;1.80;99.90;;;;;;5093571;28;20568;-78
2021/01/25 08:18:50;;;;;;;86.07;58.50;;;1.90;99.90;;;;;;5093756;28;20742;-79
2021/01/25 08:21:21;;;;;;;83.73;56.30;;;1.80;99.90;;;;;;5094455;28;20189;-79
2021/01/25 08:23:50;;;;;;;76.10;53.33;;;1.90;99.90;;;;;;5093599;28;20175;-79
2021/01/25 08:26:23;;;;;;;82.90;55.63;;;1.90;99.90;;;;;;5093971;28;20225;-79
2021/01/25 08:28:56;;;;;;;79.47;55.33;;;1.80;99.90;;;;;;5093325;28;20189;-79
2021/01/25 08:31:43;;;;;;;78.63;54.47;;;1.80;99.90;;;;;;5093496;28;20648;-78
2021/01/25 08:34:26;;;;;;;71.83;52.27;;;1.70;99.90;;;;;;5093018;28;20174;-79
2021/01/25 08:37:11;;;;;;;69.73;53.43;;;1.80;99.90;;;;;;5094273;28;20233;-79
2021/01/25 08:39:39;;;;;;;68.77;52.37;;;1.80;99.90;;;;;;5094167;28;20170;-79
2021/01/25 08:42:13;;;;;;;72.20;52.53;;;1.80;99.90;;;;;;5094603;28;20576;-79
2021/01/25 08:44:44;;;;;;;68.83;52.50;;;1.80;99.90;;;;;;5093085;28;20202;-79
2021/01/25 08:47:10;;;;;;;72.80;54.27;;;1.80;99.90;;;;;;5092954;28;20170;-79
2021/01/25 08:49:38;;;;;;;69.43;51.30;;;1.90;99.90;;;;;;5093095;28;20179;-79
2021/01/25 08:52:20;;;;;;;66.67;51.67;;;1.90;99.90;;;;;;5094027;28;20603;-79
2021/01/25 08:54:46;;;;;;;65.73;50.83;;;1.90;99.90;;;;;;5094247;28;20194;-79
2021/01/25 08:57:20;;;;;;;68.93;52.63;;;2.00;99.90;;;;;;5093899;28;20179;-79
2021/01/25 08:59:46;;;;;;;68.23;52.67;;;1.90;99.90;;;;;;5093951;28;20166;-79
2021/01/25 09:02:18;;;;;;;64.90;47.27;;;1.90;99.90;;;;;;5092346;28;20551;-79
2021/01/25 09:04:44;;;;;;;65.23;47.93;;;1.90;99.90;;;;;;5092364;28;20205;-79
2021/01/25 09:07:18;;;;;;;61.37;48.87;;;2.00;99.90;;;;;;5094037;28;20187;-78
2021/01/25 09:09:46;;;;;;;55.80;46.43;;;1.90;99.90;;;;;;5092356;28;20173;-79
2021/01/25 09:12:14;;;;;;;62.87;49.30;;;2.00;99.90;;;;;;5093768;28;20177;-78
2021/01/25 09:14:41;;;;;;;62.33;47.10;;;2.00;99.90;;;;;;5092372;28;20582;-79
2021/01/25 09:17:08;;;;;;;59.23;45.43;;;2.10;99.90;;;;;;5092091;28;20261;-79
2021/01/25 09:19:35;;;;;;;64.30;48.47;;;2.10;99.90;;;;;;5093631;28;20174;-79
2021/01/25 09:22:00;;;;;;;56.13;46.03;;;2.20;99.90;;;;;;5092120;28;20205;-79
2021/01/25 09:24:26;;;;;;;56.90;47.60;;;2.20;99.90;;;;;;5093485;28;20651;-79
2021/01/25 09:26:51;;;;;;;59.37;49.30;;;2.10;99.90;;;;;;5093493;28;20243;-79
2021/01/25 09:29:18;;;;;;;56.80;46.30;;;2.10;99.90;;;;;;5092472;28;20188;-78
2021/01/25 09:31:43;;;;;;;56.87;47.10;;;2.10;99.90;;;;;;5093182;28;20265;-79
2021/01/25 09:34:09;;;;;;;59.03;46.53;;;2.10;99.90;;;;;;5092890;28;20277;-79
2021/01/25 09:36:35;;;;;;;57.83;48.90;;;2.10;99.90;;;;;;5093185;28;20646;-79
2021/01/25 09:39:01;;;;;;;57.37;49.57;;;2.20;99.90;;;;;;5092013;28;20497;-78
2021/01/25 09:41:27;;;;;;;56.43;46.43;;;2.20;99.90;;;;;;5093331;28;20198;-78
2021/01/25 09:43:54;;;;;;;64.83;54.43;;;2.30;99.90;;;;;;5092078;28;20539;-79
2021/01/25 09:46:20;;;;;;;54.77;46.57;;;2.50;99.90;;;;;;5092893;28;20251;-79
2021/01/25 09:48:46;;;;;;;61.13;54.20;;;2.60;99.90;;;;;;5091826;28;20171;-78
2021/01/25 09:51:12;;;;;;;61.03;54.23;;;2.60;99.90;;;;;;5091878;28;20174;-78
2021/01/25 09:53:37;;;;;;;47.27;41.87;;;2.80;99.90;;;;;;5093033;28;20623;-79
2021/01/25 09:56:03;;;;;;;51.23;45.83;;;2.60;99.90;;;;;;5074741;28;20194;-79
2021/01/25 09:58:29;;;;;;;53.63;47.17;;;2.60;99.90;;;;;;5092431;28;20183;-79
2021/01/25 10:00:55;;;;;;;72.10;57.23;;;2.50;99.90;;;;;;5092622;28;20175;-79
2021/01/25 10:03:21;;;;;;;44.23;38.77;;;2.50;99.90;;;;;;5092743;28;20197;-79
2021/01/25 10:05:46;;;;;;;47.73;38.93;;;2.50;99.90;;;;;;5091300;28;20288;-79
2021/01/25 10:08:12;;;;;;;45.07;40.17;;;2.40;99.90;;;;;;5092744;28;20618;-78
2021/01/25 10:10:38;;;;;;;39.50;35.33;;;2.40;99.90;;;;;;5091424;28;20175;-79
2021/01/25 10:13:05;;;;;;;38.93;34.77;;;2.40;99.90;;;;;;5091789;28;20615;-78
2021/01/25 10:15:33;;;;;;;43.40;37.57;;;2.50;99.90;;;;;;5092970;28;20224;-79
2021/01/25 10:17:59;;;;;;;54.57;45.67;;;2.50;99.90;;;;;;5092421;28;20186;-78
2021/01/25 10:20:25;;;;;;;82.13;60.63;;;2.50;99.90;;;;;;5092479;28;20175;-78
2021/01/25 10:22:51;;;;;;;38.03;34.00;;;2.60;99.90;;;;;;5091551;28;20172;-79
2021/01/25 10:25:18;;;;;;;37.97;33.97;;;2.70;99.90;;;;;;5074567;28;20233;-79
2021/01/25 10:27:44;;;;;;;82.27;59.70;;;2.70;99.90;;;;;;5081536;28;20659;-78
2021/01/25 10:30:12;;;;;;;41.07;36.60;;;2.70;99.90;;;;;;5087937;28;20178;-78
2021/01/25 10:32:38;;;;;;;45.90;39.90;;;2.70;99.90;;;;;;5092089;28;20619;-78
2021/01/25 10:35:06;;;;;;;38.10;34.00;;;2.70;99.90;;;;;;5078002;28;20282;-78
2021/01/25 10:37:32;;;;;;;56.73;46.50;;;2.80;99.90;;;;;;5090200;28;20539;-77
2021/01/25 10:39:58;;;;;;;73.90;58.93;;;3.10;99.90;;;;;;5092054;28;20209;-78
2021/01/25 10:42:24;;;;;;;58.60;51.83;;;3.10;99.90;;;;;;5078348;28;20209;-78
2021/01/25 10:44:50;;;;;;;70.20;57.13;;;3.40;99.90;;;;;;5091266;28;20268;-78
2021/01/25 10:47:18;;;;;;;45.90;40.90;;;3.50;99.90;;;;;;5096317;28;20601;-77
2021/01/25 10:49:48;;;;;;;37.13;33.17;;;3.40;99.90;;;;;;5095716;28;20183;-78
2021/01/25 10:52:15;;;;;;;36.43;32.63;;;3.30;99.90;;;;;;5094911;28;20268;-78
2021/01/25 10:54:42;;;;;;;57.13;48.77;;;3.30;99.90;;;;;;5095250;28;20202;-78
2021/01/25 10:57:08;;;;;;;40.33;35.60;;;3.30;99.90;;;;;;5095268;28;20175;-78
2021/01/25 10:59:34;;;;;;;39.07;35.07;;;3.10;99.90;;;;;;5096374;28;20182;-78
2021/01/25 11:02:02;;;;;;;38.53;34.60;;;2.90;99.90;;;;;;5096204;28;20178;-78
2021/01/25 11:04:27;;;;;;;37.63;33.63;;;2.90;99.90;;;;;;5093745;28;20238;-78
2021/01/25 11:06:53;;;;;;;40.10;35.83;;;3.00;99.90;;;;;;5082697;28;20685;-77
2021/01/25 11:09:19;;;;;;;40.70;36.30;;;3.20;99.90;;;;;;5077836;28;20269;-78
2021/01/25 11:11:45;;;;;;;43.10;38.60;;;3.20;99.90;;;;;;5090478;28;20202;-78
2021/01/25 11:14:11;;;;;;;45.23;40.47;;;3.30;99.90;;;;;;5095908;28;20657;-78
2021/01/25 11:16:36;;;;;;;49.70;42.87;;;3.50;99.90;;;;;;5094683;28;20178;-77
2021/01/25 11:19:02;;;;;;;60.67;49.70;;;3.90;99.90;;;;;;5096026;28;20629;-77
2021/01/25 11:21:28;;;;;;;62.23;50.90;;;4.30;99.90;;;;;;5095802;28;20583;-78
2021/01/25 11:23:53;;;;;;;63.90;49.53;;;4.30;99.90;;;;;;5081503;28;20189;-78
2021/01/25 11:26:19;;;;;;;56.93;47.23;;;4.40;99.90;;;;;;5073980;28;20260;-78
2021/01/25 11:28:46;;;;;;;53.60;45.40;;;4.40;99.90;;;;;;5085604;28;20207;-78
2021/01/25 11:31:12;;;;;;;49.47;41.97;;;4.60;99.90;;;;;;5095822;28;20180;-78
2021/01/25 11:33:38;;;;;;;41.33;37.10;;;4.30;99.90;;;;;;5095479;28;20179;-78
2021/01/25 11:36:04;;;;;;;74.07;54.13;;;3.90;99.90;;;;;;5095593;28;20530;-78
2021/01/25 11:38:31;;;;;;;59.37;48.50;;;3.80;99.90;;;;;;5078737;28;20200;-77
2021/01/25 11:40:57;;;;;;;54.87;45.13;;;3.90;99.90;;;;;;5075232;28;20190;-78
2021/01/25 11:43:23;;;;;;;95.30;70.33;;;3.90;99.90;;;;;;5070033;28;20590;-78
2021/01/25 11:45:50;;;;;;;53.00;43.73;;;4.00;99.90;;;;;;5094072;28;20203;-78
2021/01/25 11:48:20;;;;;;;56.70;46.73;;;4.00;99.90;;;;;;5094035;28;20709;-78
2021/01/25 11:50:47;;;;;;;71.60;55.87;;;4.00;99.90;;;;;;5094043;28;20180;-78
2021/01/25 11:53:13;;;;;;;67.37;55.13;;;4.10;99.90;;;;;;5094142;28;20183;-77
2021/01/25 11:55:40;;;;;;;59.13;49.40;;;4.20;99.90;;;;;;5094086;28;20177;-78
2021/01/25 11:58:05;;;;;;;42.47;37.67;;;4.30;99.90;;;;;;5093647;28;20541;-78
2021/01/25 12:00:31;;;;;;;47.90;42.13;;;4.10;99.90;;;;;;5093832;28;20208;-78
2021/01/25 12:02:56;;;;;;;44.67;39.60;;;4.20;99.90;;;;;;5093714;28;20222;-78
2021/01/25 12:05:22;;;;;;;38.03;33.90;;;4.20;99.90;;;;;;5095184;28;20205;-78
2021/01/25 12:07:48;;;;;;;42.43;36.47;;;4.20;99.90;;;;;;5095482;28;20268;-78
2021/01/25 12:10:13;;;;;;;35.37;31.57;;;4.10;99.90;;;;;;5093363;28;20250;-78
2021/01/25 12:12:39;;;;;;;34.43;29.90;;;4.00;99.90;;;;;;5094672;28;20188;-78
2021/01/25 12:15:05;;;;;;;35.67;31.30;;;3.90;99.90;;;;;;5093462;28;20177;-78
2021/01/25 12:17:31;;;;;;;41.33;34.67;;;4.10;99.90;;;;;;5093253;28;20180;-78
2021/01/25 12:19:57;;;;;;;43.20;35.47;;;4.20;99.90;;;;;;5093423;28;20180;-78
2021/01/25 12:22:22;;;;;;;35.17;31.20;;;4.40;99.90;;;;;;5074588;28;20243;-77
2021/01/25 12:24:48;;;;;;;28.57;22.50;;;4.60;99.90;;;;;;5074558;28;20288;-79
2021/01/25 12:27:14;;;;;;;25.17;22.57;;;4.60;99.90;;;;;;5087359;28;20549;-78
2021/01/25 12:29:40;;;;;;;25.70;23.03;;;4.30;99.90;;;;;;5093202;28;20227;-78
2021/01/25 12:32:05;;;;;;;27.77;24.17;;;4.40;99.90;;;;;;5092785;28;20189;-78
2021/01/25 12:34:33;;;;;;;27.43;23.27;;;4.50;99.90;;;;;;5094921;28;20203;-78
2021/01/25 12:36:59;;;;;;;26.30;22.93;;;4.50;99.90;;;;;;5093044;28;20200;-78